sensor_id;sensor_type;location;lat;lon;timestamp;temperature;humidity
70366;DHT22;57787;48.216;12.396;2022-09-09T00:02:14;12.60;89.10
70366;DHT22;57787;48.216;12.396;2022-09-09T00:04:45;12.60;88.80
70366;DHT22;57787;48.216;12.396;2022-09-09T00:15:12;12.50;89.70
70366;DHT22;57787;48.216;12.396;2022-09-09T00:17:44;12.50;89.50
70366;DHT22;57787;48.216;12.396;2022-09-09T00:20:16;12.40;89.70
70366;DHT22;57787;48.216;12.396;2022-09-09T00:22:53;12.40;89.50
70366;DHT22;57787;48.216;12.396;2022-09-09T00:25:24;12.40;89.70
70366;DHT22;57787;48.216;12.396;2022-09-09T00:27:54;12.30;89.30
70366;DHT22;57787;48.216;12.396;2022-09-09T00:30:25;12.30;89.20
70366;DHT22;57787;48.216;12.396;2022-09-09T00:32:53;12.30;89.50
70366;DHT22;57787;48.216;12.396;2022-09-09T00:35:22;12.30;89.20
70366;DHT22;57787;48.216;12.396;2022-09-09T00:37:51;12.30;89.30
70366;DHT22;57787;48.216;12.396;2022-09-09T00:40:24;12.20;89.30
70366;DHT22;57787;48.216;12.396;2022-09-09T00:43:02;12.20;89.30
70366;DHT22;57787;48.216;12.396;2022-09-09T00:48:05;12.10;89.20
70366;DHT22;57787;48.216;12.396;2022-09-09T00:50:45;12.10;89.50
70366;DHT22;57787;48.216;12.396;2022-09-09T00:58:23;12.10;90.10
70366;DHT22;57787;48.216;12.396;2022-09-09T01:00:51;12.00;89.80
70366;DHT22;57787;48.216;12.396;2022-09-09T01:03:21;12.10;90.00
70366;DHT22;57787;48.216;12.396;2022-09-09T01:05:55;12.10;90.50
70366;DHT22;57787;48.216;12.396;2022-09-09T01:10:58;12.10;90.40
70366;DHT22;57787;48.216;12.396;2022-09-09T01:13:33;12.10;90.60
70366;DHT22;57787;48.216;12.396;2022-09-09T01:16:10;12.10;90.60
70366;DHT22;57787;48.216;12.396;2022-09-09T01:18:46;12.10;90.60
70366;DHT22;57787;48.216;12.396;2022-09-09T01:22:18;12.10;90.70
70366;DHT22;57787;48.216;12.396;2022-09-09T01:27:18;12.10;91.00
70366;DHT22;57787;48.216;12.396;2022-09-09T01:29:53;12.10;91.30
70366;DHT22;57787;48.216;12.396;2022-09-09T01:32:40;12.10;91.10
70366;DHT22;57787;48.216;12.396;2022-09-09T01:35:10;12.20;91.30
70366;DHT22;57787;48.216;12.396;2022-09-09T01:37:39;12.20;91.20
70366;DHT22;57787;48.216;12.396;2022-09-09T01:40:06;12.20;91.00
70366;DHT22;57787;48.216;12.396;2022-09-09T01:42:35;12.30;91.20
70366;DHT22;57787;48.216;12.396;2022-09-09T01:45:05;12.20;91.10
70366;DHT22;57787;48.216;12.396;2022-09-09T01:47:32;12.30;91.60
70366;DHT22;57787;48.216;12.396;2022-09-09T01:50:06;12.30;91.50
70366;DHT22;57787;48.216;12.396;2022-09-09T01:52:35;12.30;91.70
70366;DHT22;57787;48.216;12.396;2022-09-09T01:55:04;12.30;91.80
70366;DHT22;57787;48.216;12.396;2022-09-09T01:57:39;12.40;92.10
70366;DHT22;57787;48.216;12.396;2022-09-09T02:00:10;12.50;92.40
70366;DHT22;57787;48.216;12.396;2022-09-09T02:08:06;12.60;92.60
70366;DHT22;57787;48.216;12.396;2022-09-09T02:11:06;12.60;92.60
70366;DHT22;57787;48.216;12.396;2022-09-09T02:14:04;12.60;92.70
70366;DHT22;57787;48.216;12.396;2022-09-09T02:16:37;12.70;92.70
70366;DHT22;57787;48.216;12.396;2022-09-09T02:19:27;12.70;92.60
70366;DHT22;57787;48.216;12.396;2022-09-09T02:22:15;12.80;92.50
70366;DHT22;57787;48.216;12.396;2022-09-09T02:24:46;12.80;92.30
70366;DHT22;57787;48.216;12.396;2022-09-09T02:27:20;12.90;92.80
70366;DHT22;57787;48.216;12.396;2022-09-09T02:29:47;12.90;93.10
70366;DHT22;57787;48.216;12.396;2022-09-09T02:32:24;13.00;93.20
70366;DHT22;57787;48.216;12.396;2022-09-09T02:34:55;13.10;93.50
70366;DHT22;57787;48.216;12.396;2022-09-09T02:37:35;13.10;93.60
70366;DHT22;57787;48.216;12.396;2022-09-09T02:40:04;13.20;93.60
70366;DHT22;57787;48.216;12.396;2022-09-09T02:42:41;13.30;93.50
70366;DHT22;57787;48.216;12.396;2022-09-09T02:45:09;13.30;93.60
70366;DHT22;57787;48.216;12.396;2022-09-09T02:55:20;13.50;93.20
70366;DHT22;57787;48.216;12.396;2022-09-09T02:57:52;13.50;93.10
70366;DHT22;57787;48.216;12.396;2022-09-09T03:00:24;13.60;92.90
70366;DHT22;57787;48.216;12.396;2022-09-09T03:02:52;13.60;92.90
70366;DHT22;57787;48.216;12.396;2022-09-09T03:05:21;13.60;92.50
70366;DHT22;57787;48.216;12.396;2022-09-09T03:07:49;13.70;92.80
70366;DHT22;57787;48.216;12.396;2022-09-09T03:10:19;13.70;92.70
70366;DHT22;57787;48.216;12.396;2022-09-09T03:12:47;13.70;92.70
70366;DHT22;57787;48.216;12.396;2022-09-09T03:15:16;13.70;92.70
70366;DHT22;57787;48.216;12.396;2022-09-09T03:17:43;13.80;92.70
70366;DHT22;57787;48.216;12.396;2022-09-09T03:20:11;13.80;92.60
70366;DHT22;57787;48.216;12.396;2022-09-09T03:22:39;13.80;92.40
70366;DHT22;57787;48.216;12.396;2022-09-09T03:25:07;13.80;92.50
70366;DHT22;57787;48.216;12.396;2022-09-09T03:27:35;13.90;92.40
70366;DHT22;57787;48.216;12.396;2022-09-09T03:30:03;13.80;92.10
70366;DHT22;57787;48.216;12.396;2022-09-09T03:32:30;13.90;91.80
70366;DHT22;57787;48.216;12.396;2022-09-09T03:34:58;13.90;91.70
70366;DHT22;57787;48.216;12.396;2022-09-09T03:37:27;13.80;91.50
70366;DHT22;57787;48.216;12.396;2022-09-09T03:39:54;13.80;91.60
70366;DHT22;57787;48.216;12.396;2022-09-09T03:42:23;13.80;91.40
70366;DHT22;57787;48.216;12.396;2022-09-09T03:44:54;13.80;91.20
70366;DHT22;57787;48.216;12.396;2022-09-09T03:47:27;13.80;91.40
70366;DHT22;57787;48.216;12.396;2022-09-09T03:50:03;13.80;91.50
70366;DHT22;57787;48.216;12.396;2022-09-09T03:52:31;13.80;91.30
70366;DHT22;57787;48.216;12.396;2022-09-09T03:55:01;13.80;91.40
70366;DHT22;57787;48.216;12.396;2022-09-09T03:57:28;13.80;90.90
70366;DHT22;57787;48.216;12.396;2022-09-09T03:59:56;13.70;90.80
70366;DHT22;57787;48.216;12.396;2022-09-09T04:02:24;13.70;91.00
70366;DHT22;57787;48.216;12.396;2022-09-09T04:04:51;13.70;91.20
70366;DHT22;57787;48.216;12.396;2022-09-09T04:07:20;13.70;91.00
70366;DHT22;57787;48.216;12.396;2022-09-09T04:09:48;13.70;91.00
70366;DHT22;57787;48.216;12.396;2022-09-09T04:12:15;13.70;91.20
70366;DHT22;57787;48.216;12.396;2022-09-09T04:14:43;13.70;91.30
70366;DHT22;57787;48.216;12.396;2022-09-09T04:17:10;13.60;91.30
70366;DHT22;57787;48.216;12.396;2022-09-09T04:19:38;13.70;91.30
70366;DHT22;57787;48.216;12.396;2022-09-09T04:22:06;13.70;91.50
70366;DHT22;57787;48.216;12.396;2022-09-09T04:24:33;13.60;91.40
70366;DHT22;57787;48.216;12.396;2022-09-09T04:27:03;13.70;91.20
70366;DHT22;57787;48.216;12.396;2022-09-09T04:29:33;13.70;91.20
70366;DHT22;57787;48.216;12.396;2022-09-09T04:32:01;13.70;91.30
70366;DHT22;57787;48.216;12.396;2022-09-09T04:34:28;13.70;91.40
70366;DHT22;57787;48.216;12.396;2022-09-09T04:36:56;13.70;91.40
70366;DHT22;57787;48.216;12.396;2022-09-09T04:39:24;13.70;91.60
70366;DHT22;57787;48.216;12.396;2022-09-09T04:41:53;13.70;91.60
70366;DHT22;57787;48.216;12.396;2022-09-09T04:44:21;13.70;91.70
70366;DHT22;57787;48.216;12.396;2022-09-09T04:46:48;13.70;91.60
70366;DHT22;57787;48.216;12.396;2022-09-09T04:49:17;13.70;91.80
70366;DHT22;57787;48.216;12.396;2022-09-09T04:51:48;13.70;91.60
70366;DHT22;57787;48.216;12.396;2022-09-09T04:54:16;13.60;91.60
70366;DHT22;57787;48.216;12.396;2022-09-09T04:56:44;13.60;91.50
70366;DHT22;57787;48.216;12.396;2022-09-09T04:59:12;13.60;91.40
70366;DHT22;57787;48.216;12.396;2022-09-09T05:01:44;13.60;91.30
70366;DHT22;57787;48.216;12.396;2022-09-09T05:04:11;13.70;91.30
70366;DHT22;57787;48.216;12.396;2022-09-09T05:06:38;13.70;91.40
70366;DHT22;57787;48.216;12.396;2022-09-09T05:09:05;13.80;91.50
70366;DHT22;57787;48.216;12.396;2022-09-09T05:11:32;13.80;91.40
70366;DHT22;57787;48.216;12.396;2022-09-09T05:14:12;13.90;91.50
70366;DHT22;57787;48.216;12.396;2022-09-09T05:16:41;13.90;91.40
70366;DHT22;57787;48.216;12.396;2022-09-09T05:19:15;14.00;91.40
70366;DHT22;57787;48.216;12.396;2022-09-09T05:21:47;14.00;91.40
70366;DHT22;57787;48.216;12.396;2022-09-09T05:24:17;14.10;91.30
70366;DHT22;57787;48.216;12.396;2022-09-09T05:26:45;14.10;90.90
70366;DHT22;57787;48.216;12.396;2022-09-09T05:29:12;14.10;90.50
70366;DHT22;57787;48.216;12.396;2022-09-09T05:31:39;14.10;90.20
70366;DHT22;57787;48.216;12.396;2022-09-09T05:34:16;14.10;90.20
70366;DHT22;57787;48.216;12.396;2022-09-09T05:36:44;14.10;90.20
70366;DHT22;57787;48.216;12.396;2022-09-09T05:39:12;14.00;90.10
70366;DHT22;57787;48.216;12.396;2022-09-09T05:41:44;14.10;90.40
70366;DHT22;57787;48.216;12.396;2022-09-09T05:44:11;14.10;90.50
70366;DHT22;57787;48.216;12.396;2022-09-09T05:46:38;14.10;90.60
70366;DHT22;57787;48.216;12.396;2022-09-09T05:49:09;14.10;90.80
70366;DHT22;57787;48.216;12.396;2022-09-09T05:51:39;14.20;90.70
70366;DHT22;57787;48.216;12.396;2022-09-09T05:54:10;14.30;90.60
70366;DHT22;57787;48.216;12.396;2022-09-09T05:56:41;14.30;90.40
70366;DHT22;57787;48.216;12.396;2022-09-09T05:59:09;14.40;90.50
70366;DHT22;57787;48.216;12.396;2022-09-09T06:01:37;14.50;90.70
70366;DHT22;57787;48.216;12.396;2022-09-09T06:04:23;14.60;90.70
70366;DHT22;57787;48.216;12.396;2022-09-09T06:06:51;14.80;90.70
70366;DHT22;57787;48.216;12.396;2022-09-09T06:09:20;15.00;90.50
70366;DHT22;57787;48.216;12.396;2022-09-09T06:11:47;15.20;90.20
70366;DHT22;57787;48.216;12.396;2022-09-09T06:14:15;15.30;90.00
70366;DHT22;57787;48.216;12.396;2022-09-09T06:16:44;15.50;89.70
70366;DHT22;57787;48.216;12.396;2022-09-09T06:19:22;15.60;89.60
70366;DHT22;57787;48.216;12.396;2022-09-09T06:21:55;15.70;88.90
70366;DHT22;57787;48.216;12.396;2022-09-09T06:24:22;15.80;88.20
70366;DHT22;57787;48.216;12.396;2022-09-09T06:26:49;15.80;87.60
70366;DHT22;57787;48.216;12.396;2022-09-09T06:29:21;15.80;87.50
70366;DHT22;57787;48.216;12.396;2022-09-09T06:31:50;15.80;87.50
70366;DHT22;57787;48.216;12.396;2022-09-09T06:34:22;15.80;87.30
70366;DHT22;57787;48.216;12.396;2022-09-09T06:36:53;15.80;87.20
70366;DHT22;57787;48.216;12.396;2022-09-09T06:39:21;15.80;87.20
70366;DHT22;57787;48.216;12.396;2022-09-09T06:41:49;15.80;87.20
70366;DHT22;57787;48.216;12.396;2022-09-09T06:44:36;15.80;87.20
70366;DHT22;57787;48.216;12.396;2022-09-09T06:47:09;15.80;86.90
70366;DHT22;57787;48.216;12.396;2022-09-09T06:49:41;15.80;86.20
70366;DHT22;57787;48.216;12.396;2022-09-09T06:52:22;15.80;85.80
70366;DHT22;57787;48.216;12.396;2022-09-09T06:54:50;15.80;86.10
70366;DHT22;57787;48.216;12.396;2022-09-09T06:57:17;15.80;86.10
70366;DHT22;57787;48.216;12.396;2022-09-09T07:00:03;15.80;86.20
70366;DHT22;57787;48.216;12.396;2022-09-09T07:02:31;15.90;85.70
70366;DHT22;57787;48.216;12.396;2022-09-09T07:04:59;15.90;85.90
70366;DHT22;57787;48.216;12.396;2022-09-09T07:07:26;15.90;86.00
70366;DHT22;57787;48.216;12.396;2022-09-09T07:09:53;15.80;85.70
70366;DHT22;57787;48.216;12.396;2022-09-09T07:12:20;15.90;86.10
70366;DHT22;57787;48.216;12.396;2022-09-09T07:14:53;15.90;86.10
70366;DHT22;57787;48.216;12.396;2022-09-09T07:17:20;15.90;85.50
70366;DHT22;57787;48.216;12.396;2022-09-09T07:19:47;16.00;85.90
70366;DHT22;57787;48.216;12.396;2022-09-09T07:22:15;16.00;86.00
70366;DHT22;57787;48.216;12.396;2022-09-09T07:24:43;16.00;86.10
70366;DHT22;57787;48.216;12.396;2022-09-09T07:27:13;16.00;85.80
70366;DHT22;57787;48.216;12.396;2022-09-09T07:29:40;16.10;86.00
70366;DHT22;57787;48.216;12.396;2022-09-09T07:32:08;16.10;85.80
70366;DHT22;57787;48.216;12.396;2022-09-09T07:34:36;16.10;86.00
70366;DHT22;57787;48.216;12.396;2022-09-09T07:37:04;16.20;86.10
70366;DHT22;57787;48.216;12.396;2022-09-09T07:39:32;16.30;86.00
70366;DHT22;57787;48.216;12.396;2022-09-09T07:42:00;16.40;85.80
70366;DHT22;57787;48.216;12.396;2022-09-09T07:44:28;16.50;85.40
70366;DHT22;57787;48.216;12.396;2022-09-09T07:47:01;16.70;85.50
70366;DHT22;57787;48.216;12.396;2022-09-09T07:49:34;16.80;85.30
70366;DHT22;57787;48.216;12.396;2022-09-09T07:52:03;16.80;84.10
70366;DHT22;57787;48.216;12.396;2022-09-09T07:54:31;16.90;84.00
70366;DHT22;57787;48.216;12.396;2022-09-09T07:57:02;17.00;83.20
70366;DHT22;57787;48.216;12.396;2022-09-09T07:59:32;17.00;82.90
70366;DHT22;57787;48.216;12.396;2022-09-09T08:02:01;17.10;82.50
70366;DHT22;57787;48.216;12.396;2022-09-09T08:04:31;17.10;82.80
70366;DHT22;57787;48.216;12.396;2022-09-09T08:06:59;17.10;82.70
70366;DHT22;57787;48.216;12.396;2022-09-09T08:09:28;17.20;82.40
70366;DHT22;57787;48.216;12.396;2022-09-09T08:12:03;17.30;82.50
70366;DHT22;57787;48.216;12.396;2022-09-09T08:14:33;17.40;82.60
70366;DHT22;57787;48.216;12.396;2022-09-09T08:17:01;17.60;82.30
70366;DHT22;57787;48.216;12.396;2022-09-09T08:19:30;17.80;82.30
70366;DHT22;57787;48.216;12.396;2022-09-09T08:22:02;17.90;81.30
70366;DHT22;57787;48.216;12.396;2022-09-09T08:24:32;18.00;81.20
70366;DHT22;57787;48.216;12.396;2022-09-09T08:26:58;18.10;80.70
70366;DHT22;57787;48.216;12.396;2022-09-09T08:29:26;18.30;80.80
70366;DHT22;57787;48.216;12.396;2022-09-09T08:31:56;18.40;79.60
70366;DHT22;57787;48.216;12.396;2022-09-09T08:34:25;18.60;79.20
70366;DHT22;57787;48.216;12.396;2022-09-09T08:36:58;18.80;79.20
70366;DHT22;57787;48.216;12.396;2022-09-09T08:39:32;18.90;78.40
70366;DHT22;57787;48.216;12.396;2022-09-09T08:42:15;18.90;78.30
70366;DHT22;57787;48.216;12.396;2022-09-09T08:44:53;19.00;77.70
70366;DHT22;57787;48.216;12.396;2022-09-09T08:50:26;18.90;77.60
70366;DHT22;57787;48.216;12.396;2022-09-09T08:58:19;18.70;76.30
70366;DHT22;57787;48.216;12.396;2022-09-09T09:04:33;18.50;75.70
70366;DHT22;57787;48.216;12.396;2022-09-09T09:09:26;18.50;75.70
70366;DHT22;57787;48.216;12.396;2022-09-09T09:11:58;18.40;75.10
70366;DHT22;57787;48.216;12.396;2022-09-09T09:14:33;18.50;76.80
70366;DHT22;57787;48.216;12.396;2022-09-09T09:17:05;18.60;76.80
70366;DHT22;57787;48.216;12.396;2022-09-09T09:19:34;18.60;76.00
70366;DHT22;57787;48.216;12.396;2022-09-09T09:22:15;18.60;76.60
70366;DHT22;57787;48.216;12.396;2022-09-09T09:24:49;18.60;76.00
70366;DHT22;57787;48.216;12.396;2022-09-09T09:29:51;18.60;76.40
70366;DHT22;57787;48.216;12.396;2022-09-09T09:32:43;18.50;75.60
70366;DHT22;57787;48.216;12.396;2022-09-09T09:35:12;18.50;75.40
70366;DHT22;57787;48.216;12.396;2022-09-09T09:37:41;18.40;74.30
70366;DHT22;57787;48.216;12.396;2022-09-09T09:40:47;18.40;76.60
70366;DHT22;57787;48.216;12.396;2022-09-09T09:43:17;18.30;75.60
70366;DHT22;57787;48.216;12.396;2022-09-09T09:45:48;18.40;78.40
70366;DHT22;57787;48.216;12.396;2022-09-09T09:48:37;18.40;78.10
70366;DHT22;57787;48.216;12.396;2022-09-09T09:51:09;18.30;76.10
70366;DHT22;57787;48.216;12.396;2022-09-09T09:53:38;18.40;77.70
70366;DHT22;57787;48.216;12.396;2022-09-09T09:56:09;18.50;78.30
70366;DHT22;57787;48.216;12.396;2022-09-09T09:58:48;18.60;79.00
70366;DHT22;57787;48.216;12.396;2022-09-09T10:01:24;18.70;78.40
70366;DHT22;57787;48.216;12.396;2022-09-09T10:03:52;18.70;77.30
70366;DHT22;57787;48.216;12.396;2022-09-09T10:06:30;18.80;76.20
70366;DHT22;57787;48.216;12.396;2022-09-09T10:08:57;18.80;75.70
70366;DHT22;57787;48.216;12.396;2022-09-09T10:11:38;18.80;75.90
70366;DHT22;57787;48.216;12.396;2022-09-09T10:14:24;18.80;76.10
70366;DHT22;57787;48.216;12.396;2022-09-09T10:19:31;18.80;76.90
70366;DHT22;57787;48.216;12.396;2022-09-09T10:30:09;18.40;77.50
70366;DHT22;57787;48.216;12.396;2022-09-09T10:32:40;18.30;78.50
70366;DHT22;57787;48.216;12.396;2022-09-09T10:35:52;18.30;79.30
70366;DHT22;57787;48.216;12.396;2022-09-09T10:38:10;18.30;80.10
70366;DHT22;57787;48.216;12.396;2022-09-09T10:45:49;18.30;80.30
70366;DHT22;57787;48.216;12.396;2022-09-09T10:56:16;18.60;80.40
70366;DHT22;57787;48.216;12.396;2022-09-09T11:01:24;19.00;79.70
70366;DHT22;57787;48.216;12.396;2022-09-09T11:03:57;19.20;79.00
70366;DHT22;57787;48.216;12.396;2022-09-09T11:06:36;19.30;79.20
70366;DHT22;57787;48.216;12.396;2022-09-09T11:09:08;19.40;77.80
70366;DHT22;57787;48.216;12.396;2022-09-09T11:11:53;19.50;77.20
70366;DHT22;57787;48.216;12.396;2022-09-09T11:14:22;19.50;77.30
70366;DHT22;57787;48.216;12.396;2022-09-09T11:16:52;19.40;77.30
70366;DHT22;57787;48.216;12.396;2022-09-09T11:19:34;19.30;75.80
70366;DHT22;57787;48.216;12.396;2022-09-09T11:22:04;19.30;75.30
70366;DHT22;57787;48.216;12.396;2022-09-09T11:24:40;19.10;76.30
70366;DHT22;57787;48.216;12.396;2022-09-09T11:27:15;19.00;77.50
70366;DHT22;57787;48.216;12.396;2022-09-09T11:29:47;18.90;78.00
70366;DHT22;57787;48.216;12.396;2022-09-09T11:34:51;18.80;79.30
70366;DHT22;57787;48.216;12.396;2022-09-09T11:42:46;18.60;79.90
70366;DHT22;57787;48.216;12.396;2022-09-09T11:47:56;18.60;80.50
70366;DHT22;57787;48.216;12.396;2022-09-09T11:50:27;18.60;80.80
70366;DHT22;57787;48.216;12.396;2022-09-09T11:53:05;18.70;80.90
70366;DHT22;57787;48.216;12.396;2022-09-09T11:55:34;18.70;80.00
70366;DHT22;57787;48.216;12.396;2022-09-09T12:05:55;18.80;79.10
70366;DHT22;57787;48.216;12.396;2022-09-09T12:08:26;18.80;79.90
70366;DHT22;57787;48.216;12.396;2022-09-09T12:10:58;18.80;79.50
70366;DHT22;57787;48.216;12.396;2022-09-09T12:13:26;18.80;79.40
70366;DHT22;57787;48.216;12.396;2022-09-09T12:15:55;18.80;78.90
70366;DHT22;57787;48.216;12.396;2022-09-09T12:18:32;18.80;78.80
70366;DHT22;57787;48.216;12.396;2022-09-09T12:23:35;18.70;78.70
70366;DHT22;57787;48.216;12.396;2022-09-09T12:34:04;19.00;79.00
70366;DHT22;57787;48.216;12.396;2022-09-09T12:36:36;19.10;78.90
70366;DHT22;57787;48.216;12.396;2022-09-09T12:39:39;19.20;78.50
70366;DHT22;57787;48.216;12.396;2022-09-09T12:41:57;19.30;77.70
70366;DHT22;57787;48.216;12.396;2022-09-09T12:44:25;19.30;76.40
70366;DHT22;57787;48.216;12.396;2022-09-09T12:46:55;19.30;77.10
70366;DHT22;57787;48.216;12.396;2022-09-09T12:49:25;19.30;76.70
70366;DHT22;57787;48.216;12.396;2022-09-09T12:51:53;19.30;77.10
70366;DHT22;57787;48.216;12.396;2022-09-09T12:54:20;19.40;76.60
70366;DHT22;57787;48.216;12.396;2022-09-09T12:56:47;19.50;77.00
70366;DHT22;57787;48.216;12.396;2022-09-09T12:59:22;19.50;76.50
70366;DHT22;57787;48.216;12.396;2022-09-09T13:01:56;19.60;75.00
70366;DHT22;57787;48.216;12.396;2022-09-09T13:04:24;19.50;74.50
70366;DHT22;57787;48.216;12.396;2022-09-09T13:06:52;19.50;75.00
70366;DHT22;57787;48.216;12.396;2022-09-09T13:09:19;19.60;75.60
70366;DHT22;57787;48.216;12.396;2022-09-09T13:14:52;19.60;72.70
70366;DHT22;57787;48.216;12.396;2022-09-09T13:17:25;19.60;74.00
70366;DHT22;57787;48.216;12.396;2022-09-09T13:19:53;19.60;73.90
70366;DHT22;57787;48.216;12.396;2022-09-09T13:24:58;19.70;74.00
70366;DHT22;57787;48.216;12.396;2022-09-09T13:27:30;19.70;73.70
70366;DHT22;57787;48.216;12.396;2022-09-09T13:29:57;19.70;73.30
70366;DHT22;57787;48.216;12.396;2022-09-09T13:32:25;19.60;73.00
70366;DHT22;57787;48.216;12.396;2022-09-09T13:34:54;19.60;72.70
70366;DHT22;57787;48.216;12.396;2022-09-09T13:37:34;19.60;73.10
70366;DHT22;57787;48.216;12.396;2022-09-09T13:40:02;19.60;73.10
70366;DHT22;57787;48.216;12.396;2022-09-09T13:42:31;19.50;74.50
70366;DHT22;57787;48.216;12.396;2022-09-09T13:44:58;19.50;73.70
70366;DHT22;57787;48.216;12.396;2022-09-09T13:47:30;19.50;73.60
70366;DHT22;57787;48.216;12.396;2022-09-09T13:49:58;19.50;72.80
70366;DHT22;57787;48.216;12.396;2022-09-09T13:52:25;19.50;72.60
70366;DHT22;57787;48.216;12.396;2022-09-09T13:57:50;19.60;73.00
70366;DHT22;57787;48.216;12.396;2022-09-09T14:00:18;19.60;72.00
70366;DHT22;57787;48.216;12.396;2022-09-09T14:02:48;19.70;72.00
70366;DHT22;57787;48.216;12.396;2022-09-09T14:05:19;19.80;72.60
70366;DHT22;57787;48.216;12.396;2022-09-09T14:07:47;19.90;72.40
70366;DHT22;57787;48.216;12.396;2022-09-09T14:10:18;20.20;71.80
70366;DHT22;57787;48.216;12.396;2022-09-09T14:15:15;20.60;69.70
70366;DHT22;57787;48.216;12.396;2022-09-09T14:17:42;20.70;68.80
70366;DHT22;57787;48.216;12.396;2022-09-09T14:20:09;20.70;68.80
70366;DHT22;57787;48.216;12.396;2022-09-09T14:22:38;20.70;68.10
70366;DHT22;57787;48.216;12.396;2022-09-09T14:25:08;20.60;68.00
70366;DHT22;57787;48.216;12.396;2022-09-09T14:30:12;20.50;68.40
70366;DHT22;57787;48.216;12.396;2022-09-09T14:32:40;20.40;67.80
70366;DHT22;57787;48.216;12.396;2022-09-09T14:35:07;20.40;68.00
70366;DHT22;57787;48.216;12.396;2022-09-09T14:37:34;20.40;68.60
70366;DHT22;57787;48.216;12.396;2022-09-09T14:40:01;20.40;68.20
70366;DHT22;57787;48.216;12.396;2022-09-09T14:42:28;20.40;68.40
70366;DHT22;57787;48.216;12.396;2022-09-09T14:44:56;20.30;67.40
70366;DHT22;57787;48.216;12.396;2022-09-09T14:47:24;20.20;67.50
70366;DHT22;57787;48.216;12.396;2022-09-09T14:49:50;20.20;67.90
70366;DHT22;57787;48.216;12.396;2022-09-09T14:52:17;20.10;68.10
70366;DHT22;57787;48.216;12.396;2022-09-09T14:54:44;20.10;68.80
70366;DHT22;57787;48.216;12.396;2022-09-09T14:57:11;20.10;68.30
70366;DHT22;57787;48.216;12.396;2022-09-09T14:59:38;20.10;67.90
70366;DHT22;57787;48.216;12.396;2022-09-09T15:02:05;20.00;67.20
70366;DHT22;57787;48.216;12.396;2022-09-09T15:04:32;19.80;67.20
70366;DHT22;57787;48.216;12.396;2022-09-09T15:06:59;19.80;67.30
70366;DHT22;57787;48.216;12.396;2022-09-09T15:09:26;19.70;67.50
70366;DHT22;57787;48.216;12.396;2022-09-09T15:11:55;19.60;67.80
70366;DHT22;57787;48.216;12.396;2022-09-09T15:14:22;19.50;68.00
70366;DHT22;57787;48.216;12.396;2022-09-09T15:16:51;19.40;68.30
70366;DHT22;57787;48.216;12.396;2022-09-09T15:19:18;19.40;67.90
70366;DHT22;57787;48.216;12.396;2022-09-09T15:21:45;19.30;68.80
70366;DHT22;57787;48.216;12.396;2022-09-09T15:24:12;19.20;68.50
70366;DHT22;57787;48.216;12.396;2022-09-09T15:26:40;19.20;69.10
70366;DHT22;57787;48.216;12.396;2022-09-09T15:29:07;19.20;69.60
70366;DHT22;57787;48.216;12.396;2022-09-09T15:31:35;19.20;69.80
70366;DHT22;57787;48.216;12.396;2022-09-09T15:34:04;19.20;69.80
70366;DHT22;57787;48.216;12.396;2022-09-09T15:36:38;19.10;70.20
70366;DHT22;57787;48.216;12.396;2022-09-09T15:39:06;19.10;70.50
70366;DHT22;57787;48.216;12.396;2022-09-09T15:41:33;19.10;70.10
70366;DHT22;57787;48.216;12.396;2022-09-09T15:44:00;19.10;70.30
70366;DHT22;57787;48.216;12.396;2022-09-09T15:46:34;19.10;70.40
70366;DHT22;57787;48.216;12.396;2022-09-09T15:49:07;19.10;70.40
70366;DHT22;57787;48.216;12.396;2022-09-09T15:51:40;19.10;69.90
70366;DHT22;57787;48.216;12.396;2022-09-09T15:54:16;19.10;71.20
70366;DHT22;57787;48.216;12.396;2022-09-09T15:56:44;19.10;71.20
70366;DHT22;57787;48.216;12.396;2022-09-09T15:59:12;19.10;71.60
70366;DHT22;57787;48.216;12.396;2022-09-09T16:01:39;19.00;72.00
70366;DHT22;57787;48.216;12.396;2022-09-09T16:04:09;18.90;73.00
70366;DHT22;57787;48.216;12.396;2022-09-09T16:06:36;18.80;71.50
70366;DHT22;57787;48.216;12.396;2022-09-09T16:09:06;18.80;71.90
70366;DHT22;57787;48.216;12.396;2022-09-09T16:11:34;18.70;72.50
70366;DHT22;57787;48.216;12.396;2022-09-09T16:14:02;18.70;73.00
70366;DHT22;57787;48.216;12.396;2022-09-09T16:16:30;18.60;73.30
70366;DHT22;57787;48.216;12.396;2022-09-09T16:18:58;18.60;74.30
70366;DHT22;57787;48.216;12.396;2022-09-09T16:21:27;18.50;75.50
70366;DHT22;57787;48.216;12.396;2022-09-09T16:23:59;18.40;75.40
70366;DHT22;57787;48.216;12.396;2022-09-09T16:26:27;18.40;74.80
70366;DHT22;57787;48.216;12.396;2022-09-09T16:28:54;18.30;75.30
70366;DHT22;57787;48.216;12.396;2022-09-09T16:31:23;18.20;75.90
70366;DHT22;57787;48.216;12.396;2022-09-09T16:33:50;18.20;76.80
70366;DHT22;57787;48.216;12.396;2022-09-09T16:36:29;18.00;75.90
70366;DHT22;57787;48.216;12.396;2022-09-09T16:38:58;18.00;76.30
70366;DHT22;57787;48.216;12.396;2022-09-09T16:41:28;17.90;76.80
70366;DHT22;57787;48.216;12.396;2022-09-09T16:43:58;17.90;78.00
70366;DHT22;57787;48.216;12.396;2022-09-09T16:46:28;17.80;76.70
70366;DHT22;57787;48.216;12.396;2022-09-09T16:48:56;17.70;77.30
70366;DHT22;57787;48.216;12.396;2022-09-09T16:51:25;17.70;78.00
70366;DHT22;57787;48.216;12.396;2022-09-09T16:53:53;17.60;79.10
70366;DHT22;57787;48.216;12.396;2022-09-09T16:56:23;17.50;79.20
70366;DHT22;57787;48.216;12.396;2022-09-09T16:58:52;17.50;79.60
70366;DHT22;57787;48.216;12.396;2022-09-09T17:01:26;17.40;79.10
70366;DHT22;57787;48.216;12.396;2022-09-09T17:03:54;17.40;79.80
70366;DHT22;57787;48.216;12.396;2022-09-09T17:06:27;17.30;80.10
70366;DHT22;57787;48.216;12.396;2022-09-09T17:08:56;17.30;80.20
70366;DHT22;57787;48.216;12.396;2022-09-09T17:11:24;17.30;80.40
70366;DHT22;57787;48.216;12.396;2022-09-09T17:13:52;17.20;80.60
70366;DHT22;57787;48.216;12.396;2022-09-09T17:16:20;17.10;80.30
70366;DHT22;57787;48.216;12.396;2022-09-09T17:18:50;17.10;80.30
70366;DHT22;57787;48.216;12.396;2022-09-09T17:21:20;17.10;80.10
70366;DHT22;57787;48.216;12.396;2022-09-09T17:23:47;17.10;80.30
70366;DHT22;57787;48.216;12.396;2022-09-09T17:26:15;17.00;80.80
70366;DHT22;57787;48.216;12.396;2022-09-09T17:28:42;17.00;81.90
70366;DHT22;57787;48.216;12.396;2022-09-09T17:31:10;16.90;82.40
70366;DHT22;57787;48.216;12.396;2022-09-09T17:33:38;16.90;82.00
70366;DHT22;57787;48.216;12.396;2022-09-09T17:36:16;16.90;82.20
70366;DHT22;57787;48.216;12.396;2022-09-09T17:38:43;16.80;82.20